Flight Track Log - Related Links

Times and Time Zones

All times are in EDT time to prevent confusion due to time zone crossing. See the VNR143 flight status page for this flight to view local times or setup timezone preferences in your user account.


Time Position Orientation Groundspeed Altitude Reporting Facility
EDT Latitude Longitude Course Direction KTS MPH feet Rate Location/Type
Wed 05:02:15 PM 39.7483 -89.6196 19° North  Level FlightAware Approximate
Wed 05:03:12 PM 39.7603 -89.6142 154° Southeast 185 213 4,800  Level Kansas City Center
Wed 05:04:12 PM 39.7069 -89.5800 153° Southeast 197 227 6,200 1,500 Climbing Kansas City Center
Wed 05:05:12 PM 39.6489 -89.5408 149° Southeast 213 245 7,800 1,550 Climbing Kansas City Center
Wed 05:06:12 PM 39.5908 -89.4964 154° Southeast 229 264 9,300 1,450 Climbing Kansas City Center
Wed 05:07:12 PM 39.5244 -89.4553 153° Southeast 249 287 10,700 1,400 Climbing Kansas City Center
Wed 05:08:12 PM 39.4558 -89.4092 150° Southeast 255 293 12,100 1,500 Climbing Kansas City Center
Wed 05:09:12 PM 39.3911 -89.3600 153° Southeast 280 322 13,700 1,450 Climbing Kansas City Center
Wed 05:10:12 PM 39.3289 -89.3189 153° Southeast 275 316 15,000 650 Climbing Kansas City Center
Wed 05:11:12 PM 39.2431 -89.2633 152° Southeast 288 331 15,000  Level Kansas City Center
Wed 05:12:12 PM 39.1658 -89.2100 150° Southeast 306 352 15,000  Level Kansas City Center
Wed 05:13:12 PM 39.0881 -89.1514 149° Southeast 322 371 15,000 350 Level Kansas City Center
Wed 05:14:12 PM 39.0211 -89.1003 152° Southeast 319 367 15,700 750 Climbing Kansas City Center
Wed 05:15:12 PM 38.9372 -89.0425 151° Southeast 319 367 16,500 600 Climbing Kansas City Center
Wed 05:16:12 PM 38.8661 -88.9917 151° Southeast 329 379 16,900 650 Climbing Kansas City Center
Wed 05:17:12 PM 38.7819 -88.9314 150° Southeast 322 371 17,800 850 Climbing Kansas City Center
Wed 05:18:12 PM 38.7064 -88.8761 152° Southeast 322 371 18,600 900 Climbing Kansas City Center
Wed 05:19:12 PM 38.6264 -88.8211 149° Southeast 328 377 19,600 900 Climbing Kansas City Center
Wed 05:20:12 PM 38.5486 -88.7606 151° Southeast 328 377 20,400 900 Climbing Kansas City Center
Wed 05:21:12 PM 38.4664 -88.7033 152° Southeast 333 383 21,400 1,100 Climbing Kansas City Center
Wed 05:22:12 PM 38.3889 -88.6511 150° Southeast 333 383 22,600 1,250 Climbing Kansas City Center
Wed 05:23:12 PM 38.3086 -88.5914 150° Southeast 333 383 23,900 1,200 Climbing Kansas City Center
Wed 05:24:12 PM 38.2264 -88.5317 150° Southeast 333 383 25,000 325 Climbing Kansas City Center
Wed 05:26:35 PM 38.0311 -88.3906 140° Southeast 350 403 25,000  Level Indianapolis Center
Wed 05:27:35 PM 37.9511 -88.3061 140° Southeast 371 427 25,000  Level Indianapolis Center
Wed 05:28:35 PM 37.8731 -88.2222 140° Southeast 376 433 25,000 -250 Level Indianapolis Center
Wed 05:29:35 PM 37.7931 -88.1383 140° Southeast 376 433 24,500 -429 Descending Indianapolis Center
Wed 05:30:41 PM 37.7061 -88.0478 140° Southeast 369 425 24,100 -429 Descending Memphis Center
Wed 05:31:41 PM 37.6275 -87.9639 141° Southeast 369 425 23,600 -500 Descending Memphis Center
Wed 05:32:41 PM 37.5508 -87.8850 141° Southeast 364 419 23,100 -500 Descending Memphis Center
Wed 05:33:41 PM 37.4722 -87.8039 140° Southeast 364 419 22,600 -550 Descending Memphis Center
Wed 05:34:41 PM 37.3892 -87.7153 140° Southeast 380 437 22,000 -550 Descending Memphis Center
Wed 05:35:41 PM 37.3125 -87.6344 142° Southeast 374 430 21,500 -500 Descending Memphis Center
Wed 05:36:41 PM 37.2358 -87.5589 140° Southeast 360 414 21,000 -500 Descending Memphis Center
Wed 05:37:41 PM 37.1589 -87.4783 141° Southeast 360 414 20,500 -500 Descending Memphis Center
Wed 05:38:41 PM 37.0756 -87.3928 140° Southeast 354 407 20,000 -900 Descending Memphis Center
Wed 05:39:41 PM 37.0008 -87.3153 143° Southeast 354 407 18,700 -1,650 Descending Memphis Center
Wed 05:40:41 PM 36.9303 -87.2478 140° Southeast 343 395 16,700 -2,000 Descending Memphis Center
Wed 05:41:41 PM 36.8639 -87.1778 141° Southeast 324 373 14,700 -1,950 Descending Memphis Center
Wed 05:42:41 PM 36.7975 -87.1103 143° Southeast 314 361 12,800 -1,900 Descending Memphis Center
Wed 05:43:41 PM 36.7314 -87.0483 153° Southeast 304 350 10,900 -1,800 Descending Memphis Center
Wed 05:44:41 PM 36.6592 -87.0022 155° Southeast 294 338 9,200 -1,450 Descending Memphis Center
Wed 05:45:41 PM 36.5894 -86.9611 154° Southeast 284 327 8,000 -1,450 Descending Memphis Center
Wed 05:46:41 PM 36.5217 -86.9200 155° Southeast 279 321 6,300 -1,300 Descending Memphis Center
Wed 05:47:41 PM 36.4686 -86.8889 155° Southeast 259 298 5,400 -1,150 Descending Memphis Center
Wed 05:48:41 PM 36.4156 -86.8575 137° Southeast 224 258 4,000 -700 Descending Memphis Center
Wed 05:49:41 PM 36.3811 -86.8178 137° Southeast 188 216 4,000  Level Memphis Center
Wed 05:50:41 PM 36.3508 -86.7831 222° Southwest 160 184 4,000 -300 Level Memphis Center
Wed 05:51:41 PM 36.3125 -86.8258 211° Southwest 148 170 3,400 -800 Descending Memphis Center
Wed 05:52:41 PM 36.2758 -86.8533 193° South 159 183 2,400 -1,000 Descending Memphis Center

Login

Don't have an account? Register now (free) for customized features, flight alerts, and more!